createdAt,value
2024-05-09T00:00:22.040Z,11.48
2024-05-09T00:02:53.015Z,11.42
2024-05-09T00:05:19.803Z,11.37
2024-05-09T00:07:46.535Z,11.32
2024-05-09T00:10:22.280Z,11.28
2024-05-09T00:12:55.594Z,11.25
2024-05-09T00:15:22.146Z,11.23
2024-05-09T00:17:48.774Z,11.20
2024-05-09T00:20:20.513Z,11.18
2024-05-09T00:22:51.273Z,11.16
2024-05-09T00:25:17.963Z,11.13
2024-05-09T00:27:44.559Z,11.07
2024-05-09T00:30:17.466Z,11.03
2024-05-09T00:32:48.451Z,10.99
2024-05-09T00:35:15.146Z,10.95
2024-05-09T00:37:41.745Z,10.91
2024-05-09T00:40:15.098Z,10.88
2024-05-09T00:42:48.947Z,10.85
2024-05-09T00:45:15.639Z,10.83
2024-05-09T00:47:45.771Z,10.80
2024-05-09T00:50:19.216Z,10.78
2024-05-09T00:52:49.944Z,10.77
2024-05-09T00:55:17.631Z,10.75
2024-05-09T00:57:44.999Z,10.73
2024-05-09T01:00:22.447Z,10.70
2024-05-09T01:02:57.225Z,10.68
2024-05-09T01:05:23.908Z,10.65
2024-05-09T01:07:50.597Z,10.63
2024-05-09T01:10:21.331Z,10.61
2024-05-09T01:12:54.442Z,10.59
2024-05-09T01:15:20.972Z,10.56
2024-05-09T01:17:48.687Z,10.51
2024-05-09T01:20:20.279Z,10.44
2024-05-09T01:22:54.311Z,10.37
2024-05-09T01:25:23.676Z,10.31
2024-05-09T01:27:50.291Z,10.27
2024-05-09T01:30:21.120Z,10.20
2024-05-09T01:32:51.369Z,10.14
2024-05-09T01:35:23.201Z,10.11
2024-05-09T01:37:50.516Z,10.07
2024-05-09T01:40:22.029Z,10.06
2024-05-09T01:42:51.527Z,10.05
2024-05-09T01:45:19.198Z,10.02
2024-05-09T01:47:46.033Z,9.98
2024-05-09T01:50:16.398Z,9.93
2024-05-09T01:52:43.122Z,9.90
2024-05-09T01:55:09.782Z,9.84
2024-05-09T01:57:36.444Z,9.77
2024-05-09T02:00:06.029Z,9.74
2024-05-09T02:02:37.569Z,9.70
2024-05-09T02:05:04.612Z,9.67
2024-05-09T02:07:31.262Z,9.64
2024-05-09T02:09:57.878Z,9.60
2024-05-09T02:12:24.633Z,9.60
2024-05-09T02:14:52.335Z,9.60
2024-05-09T02:17:19.099Z,9.59
2024-05-09T02:19:45.853Z,9.58
2024-05-09T02:22:12.491Z,9.60
2024-05-09T02:24:39.071Z,9.59
2024-05-09T02:27:05.620Z,9.56
2024-05-09T02:29:32.365Z,9.53
2024-05-09T02:31:59.114Z,9.48
2024-05-09T02:34:25.841Z,9.44
2024-05-09T02:36:55.972Z,9.42
2024-05-09T02:39:22.630Z,9.39
2024-05-09T02:41:49.180Z,9.37
2024-05-09T02:44:15.817Z,9.35
2024-05-09T02:46:42.392Z,9.33
2024-05-09T02:49:09.115Z,9.31
2024-05-09T02:51:35.811Z,9.29
2024-05-09T02:54:02.385Z,9.26
2024-05-09T02:56:29.022Z,9.24
2024-05-09T02:58:56.739Z,9.24
2024-05-09T03:01:23.418Z,9.24
2024-05-09T03:03:51.159Z,9.21
2024-05-09T03:06:17.985Z,9.21
2024-05-09T03:08:46.011Z,9.20
2024-05-09T03:11:25.652Z,9.15
2024-05-09T03:13:53.415Z,9.10
2024-05-09T03:16:20.072Z,9.06
2024-05-09T03:18:50.241Z,8.99
2024-05-09T03:21:16.988Z,8.94
2024-05-09T03:23:43.931Z,8.89
2024-05-09T03:26:15.033Z,8.86
2024-05-09T03:28:43.005Z,8.82
2024-05-09T03:31:09.809Z,8.78
2024-05-09T03:33:38.046Z,8.75
2024-05-09T03:36:08.312Z,8.71
2024-05-09T03:38:42.502Z,8.70
2024-05-09T03:41:09.338Z,8.68
2024-05-09T03:43:36.325Z,8.66
2024-05-09T03:46:02.996Z,8.65
2024-05-09T03:48:29.734Z,8.62
2024-05-09T03:50:56.464Z,8.60
2024-05-09T03:53:23.255Z,8.57
2024-05-09T03:55:49.918Z,8.55
2024-05-09T03:58:16.615Z,8.53
2024-05-09T04:00:43.322Z,8.50
2024-05-09T04:03:12.080Z,8.46
2024-05-09T04:05:41.901Z,8.43
2024-05-09T04:08:10.447Z,8.41
2024-05-09T04:10:37.677Z,8.40
2024-05-09T04:13:04.650Z,8.38
2024-05-09T04:15:31.647Z,8.34
2024-05-09T04:17:58.588Z,8.32
2024-05-09T04:20:35.941Z,8.30
2024-05-09T04:23:07.226Z,8.27
2024-05-09T04:25:34.854Z,8.24
2024-05-09T04:28:01.524Z,8.24
2024-05-09T04:30:36.557Z,8.25
2024-05-09T04:33:08.394Z,8.26
2024-05-09T04:35:37.798Z,8.27
2024-05-09T04:38:05.433Z,8.28
2024-05-09T04:40:35.527Z,8.34
2024-05-09T04:43:04.990Z,8.45
2024-05-09T04:45:31.953Z,8.62
2024-05-09T04:47:58.980Z,8.79
2024-05-09T04:50:35.194Z,8.96
2024-05-09T04:53:05.979Z,9.14
2024-05-09T04:55:35.844Z,9.23
2024-05-09T04:58:02.406Z,9.27
2024-05-09T05:00:35.586Z,9.29
2024-05-09T05:03:07.206Z,9.31
2024-05-09T05:05:40.033Z,9.32
2024-05-09T05:08:18.211Z,9.34
2024-05-09T05:10:46.772Z,9.36
2024-05-09T05:13:22.581Z,9.35
2024-05-09T05:15:57.222Z,9.36
2024-05-09T05:18:28.652Z,9.39
2024-05-09T05:20:56.604Z,9.42
2024-05-09T05:23:24.177Z,9.43
2024-05-09T05:25:55.070Z,9.45
2024-05-09T05:28:22.311Z,9.47
2024-05-09T05:30:49.565Z,9.52
2024-05-09T05:33:21.096Z,9.56
2024-05-09T05:35:47.829Z,9.62
2024-05-09T05:38:14.623Z,9.71
2024-05-09T05:40:41.400Z,9.81
2024-05-09T05:43:17.426Z,9.95
2024-05-09T05:45:44.706Z,10.22
2024-05-09T05:48:13.382Z,10.53
2024-05-09T05:50:40.154Z,10.75
2024-05-09T05:53:08.019Z,10.93
2024-05-09T05:55:36.496Z,11.04
2024-05-09T05:58:03.358Z,11.15
2024-05-09T06:00:38.890Z,11.24
2024-05-09T06:03:12.485Z,11.33
2024-05-09T06:05:40.218Z,11.48
2024-05-09T06:08:07.890Z,11.76
2024-05-09T06:10:39.359Z,12.24
2024-05-09T06:13:11.467Z,12.72
2024-05-09T06:15:39.254Z,13.18
2024-05-09T06:18:07.162Z,13.61
2024-05-09T06:20:36.809Z,13.93
2024-05-09T06:23:10.061Z,14.21
2024-05-09T06:25:37.662Z,14.44
2024-05-09T06:28:04.760Z,14.72
2024-05-09T06:30:38.683Z,14.95
2024-05-09T06:33:11.303Z,15.20
2024-05-09T06:35:39.920Z,15.43
2024-05-09T06:38:08.914Z,15.56
2024-05-09T06:40:38.894Z,15.69
2024-05-09T06:43:19.104Z,15.76
2024-05-09T06:45:48.424Z,15.85
2024-05-09T06:48:19.612Z,15.96
2024-05-09T06:50:47.814Z,16.05
2024-05-09T06:53:15.957Z,16.19
2024-05-09T06:55:43.126Z,16.30
2024-05-09T06:58:09.844Z,16.34
2024-05-09T07:00:39.939Z,16.39
2024-05-09T07:03:10.304Z,16.45
2024-05-09T07:05:37.789Z,16.49
2024-05-09T07:08:05.931Z,16.52
2024-05-09T07:10:35.487Z,16.55
2024-05-09T07:13:03.061Z,16.63
2024-05-09T07:15:29.690Z,16.68
2024-05-09T07:17:56.569Z,16.74
2024-05-09T07:20:32.378Z,16.79
2024-05-09T07:23:02.952Z,16.85
2024-05-09T07:25:30.017Z,16.92
2024-05-09T07:27:56.850Z,16.96
2024-05-09T07:30:30.840Z,16.99
2024-05-09T07:33:01.030Z,17.02
2024-05-09T07:35:28.023Z,17.06
2024-05-09T07:37:54.749Z,17.08
2024-05-09T07:40:33.367Z,17.11
2024-05-09T07:43:04.200Z,17.13
2024-05-09T07:45:47.890Z,17.12
2024-05-09T07:53:39.191Z,17.10
2024-05-09T07:56:10.024Z,17.10
2024-05-09T07:58:37.432Z,17.13
2024-05-09T08:01:04.937Z,17.15
2024-05-09T08:03:34.123Z,17.18
2024-05-09T08:06:01.013Z,17.21
2024-05-09T08:08:27.594Z,17.24
2024-05-09T08:10:54.272Z,17.29
2024-05-09T08:13:21.072Z,17.32
2024-05-09T08:15:48.771Z,17.41
2024-05-09T08:18:15.790Z,17.47
2024-05-09T08:20:48.201Z,17.50
2024-05-09T08:23:14.824Z,17.54
2024-05-09T08:25:41.442Z,17.63
2024-05-09T08:28:08.057Z,17.71
2024-05-09T08:30:37.306Z,17.81
2024-05-09T08:33:06.616Z,17.88
2024-05-09T08:35:34.421Z,17.95
2024-05-09T08:38:06.068Z,18.01
2024-05-09T08:40:37.647Z,18.13
2024-05-09T08:43:12.503Z,18.27
2024-05-09T08:45:43.187Z,18.44
2024-05-09T08:48:13.108Z,18.63
2024-05-09T08:50:40.822Z,18.71
2024-05-09T08:53:09.099Z,18.84
2024-05-09T08:55:40.523Z,18.92
2024-05-09T08:58:15.692Z,19.00
2024-05-09T09:00:44.539Z,19.08
2024-05-09T09:03:17.424Z,19.15
2024-05-09T09:06:07.054Z,19.19
2024-05-09T09:08:33.744Z,19.29
2024-05-09T09:11:00.632Z,19.40
2024-05-09T09:13:27.381Z,19.47
2024-05-09T09:15:58.213Z,19.63
2024-05-09T09:18:30.040Z,19.80
2024-05-09T09:20:56.934Z,19.94
2024-05-09T09:23:23.625Z,20.12
2024-05-09T09:25:51.880Z,20.26
2024-05-09T09:28:22.676Z,20.33
2024-05-09T09:30:49.379Z,20.32
2024-05-09T09:33:18.603Z,20.32
2024-05-09T09:35:45.513Z,20.33
2024-05-09T09:38:21.234Z,20.33
2024-05-09T09:40:50.700Z,20.35
2024-05-09T09:43:22.510Z,20.32
2024-05-09T09:45:52.899Z,20.24
2024-05-09T09:48:22.851Z,20.23
2024-05-09T09:50:52.395Z,20.17
2024-05-09T09:53:20.003Z,20.13
2024-05-09T09:55:49.431Z,20.02
2024-05-09T09:58:17.636Z,19.96
2024-05-09T10:00:45.280Z,19.94
2024-05-09T10:03:12.301Z,19.88
2024-05-09T10:05:42.217Z,19.83
2024-05-09T10:08:12.853Z,19.83
2024-05-09T10:10:40.126Z,19.83
2024-05-09T10:13:07.882Z,19.77
2024-05-09T10:15:52.988Z,19.71
2024-05-09T10:18:26.328Z,19.70
2024-05-09T10:20:55.977Z,19.76
2024-05-09T10:23:30.355Z,19.94
2024-05-09T10:26:02.968Z,20.14
2024-05-09T10:28:35.319Z,20.34
2024-05-09T10:31:08.786Z,20.46
2024-05-09T10:33:50.998Z,20.57
2024-05-09T10:36:23.913Z,20.65
2024-05-09T10:38:53.166Z,20.72
2024-05-09T10:41:21.759Z,20.79
2024-05-09T10:43:49.147Z,20.80
2024-05-09T10:46:16.945Z,20.81
2024-05-09T10:48:44.316Z,20.92
2024-05-09T10:51:11.767Z,20.98
2024-05-09T10:53:45.003Z,21.17
2024-05-09T10:56:13.943Z,21.27
2024-05-09T10:58:40.546Z,21.35
2024-05-09T11:01:09.037Z,21.39
2024-05-09T11:03:36.837Z,21.37
2024-05-09T11:06:05.282Z,21.37
2024-05-09T11:08:34.856Z,21.38
2024-05-09T11:11:05.768Z,21.39
2024-05-09T11:13:34.218Z,21.45
2024-05-09T11:16:01.479Z,21.53
2024-05-09T11:18:33.480Z,21.70
2024-05-09T11:21:03.294Z,21.86
2024-05-09T11:23:33.087Z,22.01
2024-05-09T11:25:59.635Z,22.11
2024-05-09T11:28:28.958Z,22.15
2024-05-09T11:31:07.096Z,22.19
2024-05-09T11:33:37.776Z,22.23
2024-05-09T11:36:05.358Z,22.25
2024-05-09T11:38:32.683Z,22.25
2024-05-09T11:40:59.472Z,22.21
2024-05-09T11:43:26.157Z,22.20
2024-05-09T11:45:53.162Z,22.14
2024-05-09T11:48:20.099Z,22.11
2024-05-09T11:50:46.840Z,22.06
2024-05-09T11:53:13.408Z,21.97
2024-05-09T11:55:39.978Z,21.89
2024-05-09T11:58:07.236Z,21.85
2024-05-09T12:00:37.198Z,21.81
2024-05-09T12:03:05.865Z,21.79
2024-05-09T12:05:33.756Z,21.77
2024-05-09T12:08:01.410Z,21.76
2024-05-09T12:10:33.449Z,21.75
2024-05-09T12:13:03.995Z,21.76
2024-05-09T12:15:32.339Z,21.79
2024-05-09T12:18:01.655Z,21.81
2024-05-09T12:20:36.612Z,21.80
2024-05-09T12:23:06.770Z,21.80
2024-05-09T12:25:33.567Z,21.79
2024-05-09T12:28:00.900Z,21.79
2024-05-09T12:30:36.013Z,21.79
2024-05-09T12:33:07.604Z,21.82
2024-05-09T12:35:34.479Z,21.82
2024-05-09T12:38:01.042Z,21.82
2024-05-09T12:40:35.490Z,21.78
2024-05-09T12:43:05.960Z,21.74
2024-05-09T12:45:32.791Z,21.76
2024-05-09T12:47:59.668Z,21.79
2024-05-09T12:50:32.388Z,21.86
2024-05-09T12:53:01.189Z,21.89
2024-05-09T12:55:29.750Z,21.89
2024-05-09T12:57:59.411Z,21.91
2024-05-09T13:00:31.670Z,21.92
2024-05-09T13:03:01.098Z,21.95
2024-05-09T13:05:28.146Z,21.97
2024-05-09T13:07:56.420Z,21.96
2024-05-09T13:10:30.729Z,21.98
2024-05-09T13:13:00.261Z,21.95
2024-05-09T13:15:27.407Z,21.92
2024-05-09T13:17:56.368Z,21.93
2024-05-09T13:20:29.550Z,21.98
2024-05-09T13:23:02.581Z,21.94
2024-05-09T13:25:29.314Z,21.94
2024-05-09T13:27:57.164Z,21.95
2024-05-09T13:30:29.922Z,21.98
2024-05-09T13:33:06.370Z,22.01
2024-05-09T13:35:35.195Z,21.99
2024-05-09T13:38:02.889Z,21.96
2024-05-09T13:40:34.126Z,21.85
2024-05-09T13:43:04.048Z,21.82
2024-05-09T13:45:31.427Z,21.82
2024-05-09T13:47:58.699Z,21.77
2024-05-09T13:50:33.271Z,21.63
2024-05-09T13:53:04.676Z,21.54
2024-05-09T13:55:31.373Z,21.48
2024-05-09T13:57:58.222Z,21.44
2024-05-09T14:00:41.263Z,21.39
2024-05-09T14:03:11.910Z,21.35
2024-05-09T14:05:38.858Z,21.34
2024-05-09T14:08:05.964Z,21.36
2024-05-09T14:10:32.928Z,21.34
2024-05-09T14:13:01.052Z,21.32
2024-05-09T14:15:28.043Z,21.34
2024-05-09T14:17:55.564Z,21.34
2024-05-09T14:20:30.504Z,21.34
2024-05-09T14:23:01.575Z,21.39
2024-05-09T14:25:29.763Z,21.40
2024-05-09T14:27:59.693Z,21.40
2024-05-09T14:30:34.737Z,21.41
2024-05-09T14:33:08.927Z,21.42
2024-05-09T14:35:39.614Z,21.44
2024-05-09T14:38:08.344Z,21.46
2024-05-09T14:40:41.626Z,21.49
2024-05-09T14:43:15.074Z,21.54
2024-05-09T14:45:43.715Z,21.58
2024-05-09T14:48:15.419Z,21.59
2024-05-09T14:50:42.539Z,21.64
2024-05-09T14:53:11.097Z,21.66
2024-05-09T14:55:39.311Z,21.74
2024-05-09T14:58:07.926Z,21.80
2024-05-09T15:00:42.327Z,21.89
2024-05-09T15:03:11.736Z,22.05
2024-05-09T15:05:38.749Z,22.19
2024-05-09T15:08:11.405Z,22.31
2024-05-09T15:10:38.742Z,22.42
2024-05-09T15:13:07.337Z,22.53
2024-05-09T15:15:35.814Z,22.63
2024-05-09T15:18:04.268Z,22.69
2024-05-09T15:20:35.381Z,22.73
2024-05-09T15:23:06.066Z,22.70
2024-05-09T15:25:34.307Z,22.70
2024-05-09T15:28:01.179Z,22.67
2024-05-09T15:30:31.316Z,22.66
2024-05-09T15:33:00.993Z,22.62
2024-05-09T15:35:27.953Z,22.58
2024-05-09T15:37:55.333Z,22.55
2024-05-09T15:40:31.365Z,22.46
2024-05-09T15:43:05.343Z,22.46
2024-05-09T15:45:32.530Z,22.44
2024-05-09T15:48:00.031Z,22.45
2024-05-09T15:50:36.388Z,22.45
2024-05-09T15:53:08.208Z,22.40
2024-05-09T15:55:35.841Z,22.32
2024-05-09T15:58:04.299Z,22.26
2024-05-09T16:00:38.928Z,22.13
2024-05-09T16:03:13.279Z,22.00
2024-05-09T16:05:43.049Z,21.85
2024-05-09T16:08:12.594Z,21.80
2024-05-09T16:10:44.172Z,21.76
2024-05-09T16:13:12.064Z,21.67
2024-05-09T16:15:39.090Z,21.60
2024-05-09T16:18:06.607Z,21.54
2024-05-09T16:20:39.094Z,21.48
2024-05-09T16:23:08.909Z,21.41
2024-05-09T16:25:36.128Z,21.36
2024-05-09T16:28:08.348Z,21.33
2024-05-09T16:30:37.428Z,21.32
2024-05-09T16:33:05.216Z,21.32
2024-05-09T16:35:32.921Z,21.31
2024-05-09T16:38:02.313Z,21.34
2024-05-09T16:40:36.522Z,21.36
2024-05-09T16:43:06.712Z,21.36
2024-05-09T16:45:33.826Z,21.36
2024-05-09T16:48:01.612Z,21.30
2024-05-09T16:50:32.801Z,21.27
2024-05-09T16:53:02.121Z,21.23
2024-05-09T16:55:28.921Z,21.20
2024-05-09T16:57:56.864Z,21.06
2024-05-09T17:00:34.931Z,20.97
2024-05-09T17:03:08.821Z,20.91
2024-05-09T17:05:36.411Z,20.85
2024-05-09T17:08:03.669Z,20.83
2024-05-09T17:10:33.655Z,20.82
2024-05-09T17:13:04.661Z,20.81
2024-05-09T17:15:33.293Z,20.86
2024-05-09T17:18:01.727Z,20.88
2024-05-09T17:20:33.592Z,20.91
2024-05-09T17:23:04.452Z,20.92
2024-05-09T17:25:31.545Z,20.92
2024-05-09T17:28:05.047Z,20.94
2024-05-09T17:30:37.431Z,20.89
2024-05-09T17:33:11.085Z,20.87
2024-05-09T17:35:38.995Z,20.85
2024-05-09T17:38:06.780Z,20.83
2024-05-09T17:40:36.361Z,20.81
2024-05-09T17:43:06.226Z,20.78
2024-05-09T17:45:33.959Z,20.69
2024-05-09T17:48:01.323Z,20.61
2024-05-09T17:50:34.950Z,20.54
2024-05-09T17:53:04.580Z,20.48
2024-05-09T17:55:31.400Z,20.40
2024-05-09T17:57:59.450Z,20.31
2024-05-09T18:02:56.016Z,20.07
2024-05-09T18:05:22.845Z,19.97
2024-05-09T18:07:49.819Z,19.84
2024-05-09T18:10:22.578Z,19.71
2024-05-09T18:12:56.263Z,19.59
2024-05-09T18:15:22.855Z,19.49
2024-05-09T18:17:49.590Z,19.39
2024-05-09T18:20:24.145Z,19.29
2024-05-09T18:22:59.474Z,19.18
2024-05-09T18:25:26.199Z,19.10
2024-05-09T18:27:53.167Z,19.02
2024-05-09T18:30:27.421Z,18.97
2024-05-09T18:32:58.402Z,18.93
2024-05-09T18:35:25.052Z,18.87
2024-05-09T18:37:53.056Z,18.81
2024-05-09T18:40:27.340Z,18.78
2024-05-09T18:42:58.007Z,18.76
2024-05-09T18:45:27.402Z,18.75
2024-05-09T18:47:54.218Z,18.73
2024-05-09T18:50:28.849Z,18.70
2024-05-09T18:53:01.820Z,18.68
2024-05-09T18:55:28.361Z,18.67
2024-05-09T18:57:54.988Z,18.63
2024-05-09T19:00:31.467Z,18.61
2024-05-09T19:03:04.674Z,18.59
2024-05-09T19:05:32.202Z,18.58
2024-05-09T19:07:59.524Z,18.56
2024-05-09T19:10:31.623Z,18.55
2024-05-09T19:13:00.827Z,18.53
2024-05-09T19:15:27.643Z,18.50
2024-05-09T19:17:54.371Z,18.46
2024-05-09T19:20:28.615Z,18.42
2024-05-09T19:23:00.233Z,18.38
2024-05-09T19:25:26.817Z,18.32
2024-05-09T19:27:53.422Z,18.27
2024-05-09T19:30:29.295Z,18.23
2024-05-09T19:33:03.849Z,18.21
2024-05-09T19:35:33.303Z,18.17
2024-05-09T19:38:06.231Z,18.09
2024-05-09T19:40:34.471Z,18.00
2024-05-09T19:43:02.966Z,17.91
2024-05-09T19:45:31.094Z,17.86
2024-05-09T19:47:58.476Z,17.79
2024-05-09T19:50:32.727Z,17.72
2024-05-09T19:53:07.834Z,17.63
2024-05-09T19:55:35.009Z,17.55
2024-05-09T19:58:06.845Z,17.48
2024-05-09T20:00:37.111Z,17.40
2024-05-09T20:03:06.099Z,17.30
2024-05-09T20:05:33.435Z,17.22
2024-05-09T20:08:00.263Z,17.16
2024-05-09T20:10:32.073Z,17.10
2024-05-09T20:13:01.023Z,17.03
2024-05-09T20:15:27.823Z,16.97
2024-05-09T20:17:56.672Z,16.88
2024-05-09T20:20:33.345Z,16.80
2024-05-09T20:23:07.642Z,16.74
2024-05-09T20:25:34.342Z,16.70
2024-05-09T20:28:01.215Z,16.67
2024-05-09T20:30:32.933Z,16.63
2024-05-09T20:33:05.901Z,16.59
2024-05-09T20:35:33.849Z,16.54
2024-05-09T20:38:01.921Z,16.51
2024-05-09T20:40:33.927Z,16.47
2024-05-09T20:43:04.604Z,16.43
2024-05-09T20:45:31.385Z,16.35
2024-05-09T20:47:58.306Z,16.26
2024-05-09T20:50:35.634Z,16.18
2024-05-09T20:53:11.992Z,16.09
2024-05-09T20:55:40.162Z,15.98
2024-05-09T20:58:06.944Z,15.87
2024-05-09T21:00:39.819Z,15.78
2024-05-09T21:03:10.854Z,15.70
2024-05-09T21:05:38.090Z,15.62
2024-05-09T21:08:05.097Z,15.57
2024-05-09T21:10:33.571Z,15.50
2024-05-09T21:13:02.909Z,15.43
2024-05-09T21:15:30.735Z,15.34
2024-05-09T21:17:57.436Z,15.26
2024-05-09T21:20:30.497Z,15.17
2024-05-09T21:22:58.985Z,15.10
2024-05-09T21:25:25.944Z,15.05
2024-05-09T21:27:53.197Z,15.02
2024-05-09T21:30:31.422Z,14.96
2024-05-09T21:33:06.152Z,14.91
2024-05-09T21:35:32.866Z,14.89
2024-05-09T21:37:59.497Z,14.87
2024-05-09T21:40:33.407Z,14.85
2024-05-09T21:43:02.408Z,14.81
2024-05-09T21:45:29.077Z,14.77
2024-05-09T21:47:56.009Z,14.74
2024-05-09T21:50:28.507Z,14.69
2024-05-09T21:53:03.063Z,14.64
2024-05-09T21:55:29.948Z,14.60
2024-05-09T21:57:56.638Z,14.58
2024-05-09T22:00:31.650Z,14.57
2024-05-09T22:03:02.552Z,14.58
2024-05-09T22:05:29.725Z,14.57
2024-05-09T22:07:56.856Z,14.56
2024-05-09T22:10:30.228Z,14.54
2024-05-09T22:13:00.310Z,14.51
2024-05-09T22:15:27.131Z,14.48
2024-05-09T22:17:55.770Z,14.45
2024-05-09T22:20:29.299Z,14.43
2024-05-09T22:23:03.152Z,14.39
2024-05-09T22:25:30.792Z,14.35
2024-05-09T22:27:58.376Z,14.30
2024-05-09T22:30:33.778Z,14.28
2024-05-09T22:33:05.182Z,14.26
2024-05-09T22:35:32.067Z,14.23
2024-05-09T22:37:58.767Z,14.19
2024-05-09T22:40:37.775Z,14.13
2024-05-09T22:43:12.319Z,14.07
2024-05-09T22:45:39.469Z,14.03
2024-05-09T22:48:07.423Z,14.02
2024-05-09T22:50:34.217Z,14.01
2024-05-09T22:53:01.180Z,13.96
2024-05-09T22:55:28.251Z,13.90
2024-05-09T22:57:55.071Z,13.84
2024-05-09T23:00:30.435Z,13.78
2024-05-09T23:03:02.599Z,13.74
2024-05-09T23:05:30.822Z,13.73
2024-05-09T23:07:57.930Z,13.71
2024-05-09T23:10:31.659Z,13.70
2024-05-09T23:13:02.983Z,13.70
2024-05-09T23:15:30.076Z,13.69
2024-05-09T23:17:57.624Z,13.64
2024-05-09T23:22:54.136Z,13.59
2024-05-09T23:25:20.735Z,13.56
2024-05-09T23:27:47.482Z,13.53
2024-05-09T23:30:21.942Z,13.52
2024-05-09T23:32:55.709Z,13.51
2024-05-09T23:35:22.482Z,13.47
2024-05-09T23:37:49.052Z,13.39
2024-05-09T23:40:18.977Z,13.31
2024-05-09T23:42:49.316Z,13.24
2024-05-09T23:45:16.145Z,13.18
2024-05-09T23:47:42.993Z,13.13
2024-05-09T23:50:16.720Z,13.10
2024-05-09T23:52:50.042Z,13.06
2024-05-09T23:55:16.667Z,13.05
2024-05-09T23:57:43.352Z,13.03
